sensor_id;sensor_type;location;lat;lon;timestamp;P1;durP1;ratioP1;P2;durP2;ratioP2
37411;SDS011;23278;52.110;6.050;2023-07-31T00:01:24;1.08;;;0.70;;
37411;SDS011;23278;52.110;6.050;2023-07-31T00:03:50;0.80;;;0.65;;
37411;SDS011;23278;52.110;6.050;2023-07-31T00:06:16;0.90;;;0.60;;
37411;SDS011;23278;52.110;6.050;2023-07-31T00:08:42;2.60;;;0.60;;
37411;SDS011;23278;52.110;6.050;2023-07-31T00:11:08;0.98;;;0.65;;
37411;SDS011;23278;52.110;6.050;2023-07-31T00:13:33;1.15;;;0.47;;
37411;SDS011;23278;52.110;6.050;2023-07-31T00:15:59;0.90;;;0.70;;
37411;SDS011;23278;52.110;6.050;2023-07-31T00:18:25;0.70;;;0.60;;
37411;SDS011;23278;52.110;6.050;2023-07-31T00:20:51;0.88;;;0.50;;
37411;SDS011;23278;52.110;6.050;2023-07-31T00:23:17;0.57;;;0.40;;
37411;SDS011;23278;52.110;6.050;2023-07-31T00:25:43;1.15;;;0.63;;
37411;SDS011;23278;52.110;6.050;2023-07-31T00:28:09;0.85;;;0.52;;
37411;SDS011;23278;52.110;6.050;2023-07-31T00:30:35;0.68;;;0.60;;
37411;SDS011;23278;52.110;6.050;2023-07-31T00:33:01;0.82;;;0.57;;
37411;SDS011;23278;52.110;6.050;2023-07-31T00:35:29;0.90;;;0.50;;
37411;SDS011;23278;52.110;6.050;2023-07-31T00:37:56;0.57;;;0.50;;
37411;SDS011;23278;52.110;6.050;2023-07-31T00:40:23;0.90;;;0.50;;
37411;SDS011;23278;52.110;6.050;2023-07-31T00:42:48;0.40;;;0.40;;
37411;SDS011;23278;52.110;6.050;2023-07-31T00:45:14;0.50;;;0.50;;
37411;SDS011;23278;52.110;6.050;2023-07-31T00:47:40;0.70;;;0.50;;
37411;SDS011;23278;52.110;6.050;2023-07-31T00:50:06;0.57;;;0.47;;
37411;SDS011;23278;52.110;6.050;2023-07-31T00:52:33;0.60;;;0.60;;
37411;SDS011;23278;52.110;6.050;2023-07-31T00:55:01;0.50;;;0.50;;
37411;SDS011;23278;52.110;6.050;2023-07-31T00:57:27;0.80;;;0.40;;
37411;SDS011;23278;52.110;6.050;2023-07-31T00:59:53;0.38;;;0.38;;
37411;SDS011;23278;52.110;6.050;2023-07-31T01:02:19;1.80;;;0.70;;
37411;SDS011;23278;52.110;6.050;2023-07-31T01:04:45;2.45;;;0.98;;
37411;SDS011;23278;52.110;6.050;2023-07-31T01:07:28;1.70;;;0.90;;
37411;SDS011;23278;52.110;6.050;2023-07-31T01:10:21;6.43;;;1.70;;
37411;SDS011;23278;52.110;6.050;2023-07-31T01:12:51;9.27;;;2.97;;
37411;SDS011;23278;52.110;6.050;2023-07-31T01:15:18;8.32;;;3.92;;
37411;SDS011;23278;52.110;6.050;2023-07-31T01:17:44;15.10;;;4.68;;
37411;SDS011;23278;52.110;6.050;2023-07-31T01:20:17;18.75;;;6.22;;
37411;SDS011;23278;52.110;6.050;2023-07-31T01:25:24;16.08;;;6.45;;
37411;SDS011;23278;52.110;6.050;2023-07-31T01:27:59;17.08;;;7.63;;
37411;SDS011;23278;52.110;6.050;2023-07-31T01:30:34;25.92;;;9.10;;
37411;SDS011;23278;52.110;6.050;2023-07-31T01:33:03;26.70;;;10.82;;
37411;SDS011;23278;52.110;6.050;2023-07-31T01:35:33;28.45;;;11.75;;
37411;SDS011;23278;52.110;6.050;2023-07-31T01:38:00;25.75;;;10.55;;
37411;SDS011;23278;52.110;6.050;2023-07-31T01:40:26;22.83;;;10.02;;
37411;SDS011;23278;52.110;6.050;2023-07-31T01:42:51;30.20;;;10.88;;
37411;SDS011;23278;52.110;6.050;2023-07-31T01:45:17;26.23;;;10.85;;
37411;SDS011;23278;52.110;6.050;2023-07-31T01:47:43;36.85;;;12.60;;
37411;SDS011;23278;52.110;6.050;2023-07-31T01:50:11;30.02;;;11.38;;
37411;SDS011;23278;52.110;6.050;2023-07-31T01:52:37;34.50;;;13.23;;
37411;SDS011;23278;52.110;6.050;2023-07-31T01:55:03;28.50;;;12.60;;
37411;SDS011;23278;52.110;6.050;2023-07-31T01:57:29;44.03;;;14.50;;
37411;SDS011;23278;52.110;6.050;2023-07-31T01:59:55;44.63;;;13.82;;
37411;SDS011;23278;52.110;6.050;2023-07-31T02:02:21;39.17;;;12.95;;
37411;SDS011;23278;52.110;6.050;2023-07-31T02:04:48;41.30;;;13.93;;
37411;SDS011;23278;52.110;6.050;2023-07-31T02:07:14;52.28;;;15.80;;
37411;SDS011;23278;52.110;6.050;2023-07-31T02:09:40;42.42;;;14.75;;
37411;SDS011;23278;52.110;6.050;2023-07-31T02:12:06;37.65;;;13.07;;
37411;SDS011;23278;52.110;6.050;2023-07-31T02:14:34;37.58;;;14.27;;
37411;SDS011;23278;52.110;6.050;2023-07-31T02:17:00;36.40;;;14.32;;
37411;SDS011;23278;52.110;6.050;2023-07-31T02:19:26;38.38;;;14.07;;
37411;SDS011;23278;52.110;6.050;2023-07-31T02:21:52;40.25;;;14.80;;
37411;SDS011;23278;52.110;6.050;2023-07-31T02:24:18;33.53;;;13.52;;
37411;SDS011;23278;52.110;6.050;2023-07-31T02:26:44;41.70;;;14.25;;
37411;SDS011;23278;52.110;6.050;2023-07-31T02:29:09;39.17;;;14.18;;
37411;SDS011;23278;52.110;6.050;2023-07-31T02:31:35;37.03;;;14.32;;
37411;SDS011;23278;52.110;6.050;2023-07-31T02:34:01;28.00;;;12.27;;
37411;SDS011;23278;52.110;6.050;2023-07-31T02:36:27;28.92;;;10.98;;
37411;SDS011;23278;52.110;6.050;2023-07-31T02:38:55;18.85;;;9.70;;
37411;SDS011;23278;52.110;6.050;2023-07-31T02:41:20;21.65;;;8.73;;
37411;SDS011;23278;52.110;6.050;2023-07-31T02:43:46;21.23;;;9.80;;
37411;SDS011;23278;52.110;6.050;2023-07-31T02:46:12;17.20;;;8.15;;
37411;SDS011;23278;52.110;6.050;2023-07-31T02:48:38;18.08;;;7.88;;
37411;SDS011;23278;52.110;6.050;2023-07-31T02:51:04;14.55;;;7.03;;
37411;SDS011;23278;52.110;6.050;2023-07-31T02:53:30;18.02;;;7.05;;
37411;SDS011;23278;52.110;6.050;2023-07-31T02:55:56;23.13;;;7.50;;
37411;SDS011;23278;52.110;6.050;2023-07-31T02:58:22;18.42;;;6.97;;
37411;SDS011;23278;52.110;6.050;2023-07-31T03:00:48;18.23;;;7.53;;
37411;SDS011;23278;52.110;6.050;2023-07-31T03:03:14;22.30;;;7.75;;
37411;SDS011;23278;52.110;6.050;2023-07-31T03:05:40;19.63;;;8.38;;
37411;SDS011;23278;52.110;6.050;2023-07-31T03:08:06;26.13;;;9.88;;
37411;SDS011;23278;52.110;6.050;2023-07-31T03:10:32;20.77;;;8.82;;
37411;SDS011;23278;52.110;6.050;2023-07-31T03:12:58;18.88;;;7.78;;
37411;SDS011;23278;52.110;6.050;2023-07-31T03:15:27;25.65;;;9.05;;
37411;SDS011;23278;52.110;6.050;2023-07-31T03:17:53;33.97;;;10.75;;
37411;SDS011;23278;52.110;6.050;2023-07-31T03:20:19;24.45;;;8.55;;
37411;SDS011;23278;52.110;6.050;2023-07-31T03:22:45;15.93;;;7.88;;
37411;SDS011;23278;52.110;6.050;2023-07-31T03:25:11;26.65;;;10.88;;
37411;SDS011;23278;52.110;6.050;2023-07-31T03:27:37;28.40;;;10.57;;
37411;SDS011;23278;52.110;6.050;2023-07-31T03:30:03;30.98;;;13.18;;
37411;SDS011;23278;52.110;6.050;2023-07-31T03:32:30;36.97;;;12.40;;
37411;SDS011;23278;52.110;6.050;2023-07-31T03:34:57;40.72;;;12.38;;
37411;SDS011;23278;52.110;6.050;2023-07-31T03:37:24;36.75;;;13.45;;
37411;SDS011;23278;52.110;6.050;2023-07-31T03:39:50;35.63;;;12.48;;
37411;SDS011;23278;52.110;6.050;2023-07-31T03:42:16;39.63;;;12.50;;
37411;SDS011;23278;52.110;6.050;2023-07-31T03:44:42;47.47;;;13.57;;
37411;SDS011;23278;52.110;6.050;2023-07-31T03:47:08;34.28;;;11.95;;
37411;SDS011;23278;52.110;6.050;2023-07-31T03:49:36;37.97;;;11.00;;
37411;SDS011;23278;52.110;6.050;2023-07-31T03:52:04;41.83;;;15.05;;
37411;SDS011;23278;52.110;6.050;2023-07-31T03:54:30;49.70;;;14.48;;
37411;SDS011;23278;52.110;6.050;2023-07-31T03:56:56;48.85;;;13.55;;
37411;SDS011;23278;52.110;6.050;2023-07-31T03:59:22;46.42;;;13.80;;
37411;SDS011;23278;52.110;6.050;2023-07-31T04:01:48;34.22;;;12.63;;
37411;SDS011;23278;52.110;6.050;2023-07-31T04:04:14;42.00;;;13.30;;
37411;SDS011;23278;52.110;6.050;2023-07-31T04:06:40;34.38;;;10.98;;
37411;SDS011;23278;52.110;6.050;2023-07-31T04:09:06;38.78;;;12.80;;
37411;SDS011;23278;52.110;6.050;2023-07-31T04:11:32;31.48;;;11.82;;
37411;SDS011;23278;52.110;6.050;2023-07-31T04:13:58;38.58;;;11.77;;
37411;SDS011;23278;52.110;6.050;2023-07-31T04:16:24;40.35;;;12.07;;
37411;SDS011;23278;52.110;6.050;2023-07-31T04:18:50;42.22;;;13.00;;
37411;SDS011;23278;52.110;6.050;2023-07-31T04:21:16;31.48;;;11.88;;
37411;SDS011;23278;52.110;6.050;2023-07-31T04:23:42;38.22;;;11.60;;
37411;SDS011;23278;52.110;6.050;2023-07-31T04:26:08;34.97;;;10.80;;
37411;SDS011;23278;52.110;6.050;2023-07-31T04:28:34;35.22;;;11.60;;
37411;SDS011;23278;52.110;6.050;2023-07-31T04:31:00;30.60;;;9.77;;
37411;SDS011;23278;52.110;6.050;2023-07-31T04:33:26;38.83;;;12.25;;
37411;SDS011;23278;52.110;6.050;2023-07-31T04:35:52;41.78;;;12.95;;
37411;SDS011;23278;52.110;6.050;2023-07-31T04:38:20;37.92;;;12.52;;
37411;SDS011;23278;52.110;6.050;2023-07-31T04:40:47;37.13;;;11.15;;
37411;SDS011;23278;52.110;6.050;2023-07-31T04:43:15;31.60;;;10.50;;
37411;SDS011;23278;52.110;6.050;2023-07-31T04:45:42;45.83;;;13.15;;
37411;SDS011;23278;52.110;6.050;2023-07-31T04:48:15;31.80;;;10.50;;
37411;SDS011;23278;52.110;6.050;2023-07-31T04:50:44;40.67;;;12.15;;
37411;SDS011;23278;52.110;6.050;2023-07-31T04:53:10;43.72;;;12.90;;
37411;SDS011;23278;52.110;6.050;2023-07-31T04:55:37;36.92;;;10.88;;
37411;SDS011;23278;52.110;6.050;2023-07-31T04:58:05;38.15;;;12.02;;
37411;SDS011;23278;52.110;6.050;2023-07-31T05:00:31;32.95;;;10.07;;
37411;SDS011;23278;52.110;6.050;2023-07-31T05:02:58;35.15;;;10.55;;
37411;SDS011;23278;52.110;6.050;2023-07-31T05:05:27;45.20;;;12.77;;
37411;SDS011;23278;52.110;6.050;2023-07-31T05:07:54;27.55;;;10.90;;
37411;SDS011;23278;52.110;6.050;2023-07-31T05:10:20;36.45;;;11.80;;
37411;SDS011;23278;52.110;6.050;2023-07-31T05:12:46;30.23;;;10.15;;
37411;SDS011;23278;52.110;6.050;2023-07-31T05:15:12;35.25;;;12.27;;
37411;SDS011;23278;52.110;6.050;2023-07-31T05:17:38;40.25;;;11.07;;
37411;SDS011;23278;52.110;6.050;2023-07-31T05:20:04;34.17;;;11.50;;
37411;SDS011;23278;52.110;6.050;2023-07-31T05:22:31;32.55;;;11.75;;
37411;SDS011;23278;52.110;6.050;2023-07-31T05:24:56;35.50;;;11.20;;
37411;SDS011;23278;52.110;6.050;2023-07-31T05:27:23;39.05;;;13.15;;
37411;SDS011;23278;52.110;6.050;2023-07-31T05:29:49;34.85;;;12.70;;
37411;SDS011;23278;52.110;6.050;2023-07-31T05:32:15;43.85;;;12.48;;
37411;SDS011;23278;52.110;6.050;2023-07-31T05:34:41;38.90;;;10.82;;
37411;SDS011;23278;52.110;6.050;2023-07-31T05:37:09;34.28;;;12.52;;
37411;SDS011;23278;52.110;6.050;2023-07-31T05:39:36;37.60;;;11.60;;
37411;SDS011;23278;52.110;6.050;2023-07-31T05:42:02;41.08;;;13.02;;
37411;SDS011;23278;52.110;6.050;2023-07-31T05:44:29;31.58;;;10.82;;
37411;SDS011;23278;52.110;6.050;2023-07-31T05:46:55;27.90;;;10.77;;
37411;SDS011;23278;52.110;6.050;2023-07-31T05:49:21;37.78;;;12.35;;
37411;SDS011;23278;52.110;6.050;2023-07-31T05:51:47;34.00;;;12.25;;
37411;SDS011;23278;52.110;6.050;2023-07-31T05:54:13;33.92;;;11.52;;
37411;SDS011;23278;52.110;6.050;2023-07-31T05:56:38;37.35;;;12.98;;
37411;SDS011;23278;52.110;6.050;2023-07-31T05:59:04;34.45;;;12.55;;
37411;SDS011;23278;52.110;6.050;2023-07-31T06:01:30;39.13;;;12.73;;
37411;SDS011;23278;52.110;6.050;2023-07-31T06:03:56;34.35;;;11.30;;
37411;SDS011;23278;52.110;6.050;2023-07-31T06:06:22;29.48;;;11.55;;
37411;SDS011;23278;52.110;6.050;2023-07-31T06:08:48;35.70;;;12.45;;
37411;SDS011;23278;52.110;6.050;2023-07-31T06:11:15;25.08;;;10.55;;
37411;SDS011;23278;52.110;6.050;2023-07-31T06:13:41;24.77;;;10.07;;
37411;SDS011;23278;52.110;6.050;2023-07-31T06:16:07;18.48;;;9.50;;
37411;SDS011;23278;52.110;6.050;2023-07-31T06:18:33;18.40;;;8.00;;
37411;SDS011;23278;52.110;6.050;2023-07-31T06:20:59;23.33;;;9.43;;
37411;SDS011;23278;52.110;6.050;2023-07-31T06:23:25;18.80;;;7.63;;
37411;SDS011;23278;52.110;6.050;2023-07-31T06:25:51;21.63;;;8.65;;
37411;SDS011;23278;52.110;6.050;2023-07-31T06:28:17;17.75;;;7.97;;
37411;SDS011;23278;52.110;6.050;2023-07-31T06:30:42;19.10;;;7.47;;
37411;SDS011;23278;52.110;6.050;2023-07-31T06:33:08;15.63;;;7.03;;
37411;SDS011;23278;52.110;6.050;2023-07-31T06:35:34;14.52;;;7.25;;
37411;SDS011;23278;52.110;6.050;2023-07-31T06:38:00;16.30;;;7.50;;
37411;SDS011;23278;52.110;6.050;2023-07-31T06:40:27;22.42;;;8.35;;
37411;SDS011;23278;52.110;6.050;2023-07-31T06:42:54;18.63;;;8.30;;
37411;SDS011;23278;52.110;6.050;2023-07-31T06:45:20;13.38;;;7.03;;
37411;SDS011;23278;52.110;6.050;2023-07-31T06:47:47;16.95;;;6.68;;
37411;SDS011;23278;52.110;6.050;2023-07-31T06:50:13;17.45;;;6.78;;
37411;SDS011;23278;52.110;6.050;2023-07-31T06:52:39;17.73;;;7.10;;
37411;SDS011;23278;52.110;6.050;2023-07-31T06:55:18;19.42;;;6.93;;
37411;SDS011;23278;52.110;6.050;2023-07-31T06:57:46;13.70;;;6.60;;
37411;SDS011;23278;52.110;6.050;2023-07-31T07:00:12;14.88;;;6.35;;
37411;SDS011;23278;52.110;6.050;2023-07-31T07:02:38;13.50;;;5.15;;
37411;SDS011;23278;52.110;6.050;2023-07-31T07:05:06;12.88;;;5.80;;
37411;SDS011;23278;52.110;6.050;2023-07-31T07:07:32;9.73;;;5.28;;
37411;SDS011;23278;52.110;6.050;2023-07-31T07:09:58;11.68;;;5.78;;
37411;SDS011;23278;52.110;6.050;2023-07-31T07:12:29;11.80;;;5.30;;
37411;SDS011;23278;52.110;6.050;2023-07-31T07:14:56;11.65;;;4.45;;
37411;SDS011;23278;52.110;6.050;2023-07-31T07:17:23;9.75;;;4.43;;
37411;SDS011;23278;52.110;6.050;2023-07-31T07:19:50;12.30;;;5.97;;
37411;SDS011;23278;52.110;6.050;2023-07-31T07:22:16;11.32;;;4.82;;
37411;SDS011;23278;52.110;6.050;2023-07-31T07:24:42;8.30;;;3.85;;
37411;SDS011;23278;52.110;6.050;2023-07-31T07:27:08;8.68;;;3.50;;
37411;SDS011;23278;52.110;6.050;2023-07-31T07:29:34;8.32;;;4.25;;
37411;SDS011;23278;52.110;6.050;2023-07-31T07:32:00;8.52;;;4.10;;
37411;SDS011;23278;52.110;6.050;2023-07-31T07:34:27;8.07;;;3.78;;
37411;SDS011;23278;52.110;6.050;2023-07-31T07:36:53;6.80;;;3.17;;
37411;SDS011;23278;52.110;6.050;2023-07-31T07:39:20;8.07;;;3.28;;
37411;SDS011;23278;52.110;6.050;2023-07-31T07:41:46;6.60;;;2.80;;
37411;SDS011;23278;52.110;6.050;2023-07-31T07:44:13;5.88;;;2.92;;
37411;SDS011;23278;52.110;6.050;2023-07-31T07:46:39;4.13;;;2.30;;
37411;SDS011;23278;52.110;6.050;2023-07-31T07:49:05;5.60;;;2.50;;
37411;SDS011;23278;52.110;6.050;2023-07-31T07:51:31;4.93;;;1.55;;
37411;SDS011;23278;52.110;6.050;2023-07-31T07:53:58;3.85;;;1.95;;
37411;SDS011;23278;52.110;6.050;2023-07-31T07:56:25;3.35;;;2.08;;
37411;SDS011;23278;52.110;6.050;2023-07-31T07:58:51;2.75;;;1.75;;
37411;SDS011;23278;52.110;6.050;2023-07-31T08:01:17;3.15;;;1.85;;
37411;SDS011;23278;52.110;6.050;2023-07-31T08:03:43;3.00;;;1.75;;
37411;SDS011;23278;52.110;6.050;2023-07-31T08:06:09;2.97;;;2.08;;
37411;SDS011;23278;52.110;6.050;2023-07-31T08:08:36;3.40;;;1.75;;
37411;SDS011;23278;52.110;6.050;2023-07-31T08:11:02;4.63;;;2.70;;
37411;SDS011;23278;52.110;6.050;2023-07-31T08:13:28;3.25;;;2.35;;
37411;SDS011;23278;52.110;6.050;2023-07-31T08:15:55;3.53;;;2.30;;
37411;SDS011;23278;52.110;6.050;2023-07-31T08:18:21;3.95;;;2.40;;
37411;SDS011;23278;52.110;6.050;2023-07-31T08:20:47;5.15;;;2.65;;
37411;SDS011;23278;52.110;6.050;2023-07-31T08:23:13;3.38;;;2.20;;
37411;SDS011;23278;52.110;6.050;2023-07-31T08:25:39;3.47;;;2.15;;
37411;SDS011;23278;52.110;6.050;2023-07-31T08:28:05;4.35;;;2.20;;
37411;SDS011;23278;52.110;6.050;2023-07-31T08:30:32;3.33;;;1.98;;
37411;SDS011;23278;52.110;6.050;2023-07-31T08:32:58;3.13;;;2.13;;
37411;SDS011;23278;52.110;6.050;2023-07-31T08:35:25;3.47;;;1.92;;
37411;SDS011;23278;52.110;6.050;2023-07-31T08:37:53;3.35;;;1.65;;
37411;SDS011;23278;52.110;6.050;2023-07-31T08:40:19;2.65;;;2.10;;
37411;SDS011;23278;52.110;6.050;2023-07-31T08:42:47;4.45;;;2.50;;
37411;SDS011;23278;52.110;6.050;2023-07-31T08:45:18;4.10;;;2.58;;
37411;SDS011;23278;52.110;6.050;2023-07-31T08:47:46;3.35;;;2.35;;
37411;SDS011;23278;52.110;6.050;2023-07-31T08:50:14;3.60;;;2.35;;
37411;SDS011;23278;52.110;6.050;2023-07-31T08:52:42;3.45;;;2.30;;
37411;SDS011;23278;52.110;6.050;2023-07-31T08:55:08;3.78;;;2.45;;
37411;SDS011;23278;52.110;6.050;2023-07-31T08:57:35;3.03;;;2.00;;
37411;SDS011;23278;52.110;6.050;2023-07-31T09:00:02;4.28;;;2.20;;
37411;SDS011;23278;52.110;6.050;2023-07-31T09:03:17;3.42;;;2.25;;
37411;SDS011;23278;52.110;6.050;2023-07-31T09:05:23;2.97;;;2.30;;
37411;SDS011;23278;52.110;6.050;2023-07-31T09:07:56;3.27;;;2.30;;
37411;SDS011;23278;52.110;6.050;2023-07-31T09:10:23;3.92;;;2.10;;
37411;SDS011;23278;52.110;6.050;2023-07-31T09:12:53;3.20;;;2.05;;
37411;SDS011;23278;52.110;6.050;2023-07-31T09:15:19;3.88;;;2.25;;
37411;SDS011;23278;52.110;6.050;2023-07-31T09:17:46;3.40;;;2.78;;
37411;SDS011;23278;52.110;6.050;2023-07-31T09:20:16;5.55;;;2.72;;
37411;SDS011;23278;52.110;6.050;2023-07-31T09:22:47;4.80;;;2.80;;
37411;SDS011;23278;52.110;6.050;2023-07-31T09:25:24;3.50;;;2.55;;
37411;SDS011;23278;52.110;6.050;2023-07-31T09:27:53;3.25;;;2.42;;
37411;SDS011;23278;52.110;6.050;2023-07-31T09:30:26;4.65;;;2.78;;
37411;SDS011;23278;52.110;6.050;2023-07-31T09:33:10;3.20;;;2.42;;
37411;SDS011;23278;52.110;6.050;2023-07-31T09:35:36;3.13;;;2.42;;
37411;SDS011;23278;52.110;6.050;2023-07-31T09:38:09;5.43;;;3.22;;
37411;SDS011;23278;52.110;6.050;2023-07-31T09:40:38;4.65;;;2.97;;
37411;SDS011;23278;52.110;6.050;2023-07-31T09:43:09;5.68;;;3.55;;
37411;SDS011;23278;52.110;6.050;2023-07-31T09:45:37;4.82;;;3.83;;
37411;SDS011;23278;52.110;6.050;2023-07-31T09:48:08;6.40;;;3.58;;
37411;SDS011;23278;52.110;6.050;2023-07-31T09:50:42;3.42;;;3.00;;
37411;SDS011;23278;52.110;6.050;2023-07-31T09:53:09;9.32;;;4.40;;
37411;SDS011;23278;52.110;6.050;2023-07-31T09:55:36;5.10;;;4.30;;
37411;SDS011;23278;52.110;6.050;2023-07-31T09:58:03;6.45;;;5.50;;
37411;SDS011;23278;52.110;6.050;2023-07-31T10:00:32;6.47;;;5.60;;
37411;SDS011;23278;52.110;6.050;2023-07-31T10:02:59;8.32;;;6.43;;
37411;SDS011;23278;52.110;6.050;2023-07-31T10:05:38;8.13;;;7.28;;
37411;SDS011;23278;52.110;6.050;2023-07-31T10:08:08;9.43;;;7.22;;
37411;SDS011;23278;52.110;6.050;2023-07-31T10:10:36;14.15;;;9.02;;
37411;SDS011;23278;52.110;6.050;2023-07-31T10:13:03;13.48;;;9.70;;
37411;SDS011;23278;52.110;6.050;2023-07-31T10:15:30;15.32;;;10.25;;
37411;SDS011;23278;52.110;6.050;2023-07-31T10:17:57;13.18;;;9.93;;
37411;SDS011;23278;52.110;6.050;2023-07-31T10:20:24;13.88;;;10.02;;
37411;SDS011;23278;52.110;6.050;2023-07-31T10:22:54;15.23;;;10.88;;
37411;SDS011;23278;52.110;6.050;2023-07-31T10:25:20;15.70;;;11.85;;
37411;SDS011;23278;52.110;6.050;2023-07-31T10:27:47;17.17;;;12.40;;
37411;SDS011;23278;52.110;6.050;2023-07-31T10:30:15;18.00;;;14.02;;
37411;SDS011;23278;52.110;6.050;2023-07-31T10:32:43;20.83;;;12.45;;
37411;SDS011;23278;52.110;6.050;2023-07-31T10:35:11;18.98;;;12.40;;
37411;SDS011;23278;52.110;6.050;2023-07-31T10:37:38;18.40;;;12.88;;
37411;SDS011;23278;52.110;6.050;2023-07-31T10:40:13;20.23;;;13.82;;
37411;SDS011;23278;52.110;6.050;2023-07-31T10:43:01;23.92;;;13.82;;
37411;SDS011;23278;52.110;6.050;2023-07-31T10:45:37;18.30;;;13.25;;
37411;SDS011;23278;52.110;6.050;2023-07-31T10:48:14;17.65;;;14.50;;
37411;SDS011;23278;52.110;6.050;2023-07-31T10:50:49;20.38;;;14.65;;
37411;SDS011;23278;52.110;6.050;2023-07-31T10:53:25;29.15;;;16.75;;
37411;SDS011;23278;52.110;6.050;2023-07-31T10:55:59;20.08;;;14.65;;
37411;SDS011;23278;52.110;6.050;2023-07-31T10:58:29;23.80;;;16.45;;
37411;SDS011;23278;52.110;6.050;2023-07-31T11:00:58;20.52;;;15.18;;
37411;SDS011;23278;52.110;6.050;2023-07-31T11:03:26;23.52;;;15.82;;
37411;SDS011;23278;52.110;6.050;2023-07-31T11:06:06;24.85;;;15.93;;
37411;SDS011;23278;52.110;6.050;2023-07-31T11:08:34;22.15;;;15.75;;
37411;SDS011;23278;52.110;6.050;2023-07-31T11:11:07;22.77;;;16.67;;
37411;SDS011;23278;52.110;6.050;2023-07-31T11:16:21;27.05;;;17.13;;
37411;SDS011;23278;52.110;6.050;2023-07-31T11:18:48;19.02;;;15.13;;
37411;SDS011;23278;52.110;6.050;2023-07-31T11:21:15;20.38;;;15.15;;
37411;SDS011;23278;52.110;6.050;2023-07-31T11:23:46;27.50;;;17.13;;
37411;SDS011;23278;52.110;6.050;2023-07-31T11:26:12;21.58;;;15.10;;
37411;SDS011;23278;52.110;6.050;2023-07-31T11:28:39;21.77;;;14.02;;
37411;SDS011;23278;52.110;6.050;2023-07-31T11:31:08;19.63;;;15.57;;
37411;SDS011;23278;52.110;6.050;2023-07-31T11:33:35;22.98;;;14.73;;
37411;SDS011;23278;52.110;6.050;2023-07-31T11:36:01;18.85;;;14.27;;
37411;SDS011;23278;52.110;6.050;2023-07-31T11:38:28;20.83;;;14.98;;
37411;SDS011;23278;52.110;6.050;2023-07-31T11:40:56;14.95;;;13.40;;
37411;SDS011;23278;52.110;6.050;2023-07-31T11:43:33;14.25;;;11.75;;
37411;SDS011;23278;52.110;6.050;2023-07-31T11:46:00;17.85;;;11.80;;
37411;SDS011;23278;52.110;6.050;2023-07-31T11:48:33;13.43;;;12.10;;
37411;SDS011;23278;52.110;6.050;2023-07-31T11:51:01;11.38;;;10.18;;
37411;SDS011;23278;52.110;6.050;2023-07-31T11:56:06;11.00;;;9.90;;
37411;SDS011;23278;52.110;6.050;2023-07-31T11:58:34;12.05;;;10.23;;
37411;SDS011;23278;52.110;6.050;2023-07-31T12:01:01;15.93;;;10.80;;
37411;SDS011;23278;52.110;6.050;2023-07-31T12:03:28;20.13;;;13.55;;
37411;SDS011;23278;52.110;6.050;2023-07-31T12:05:54;13.15;;;10.95;;
37411;SDS011;23278;52.110;6.050;2023-07-31T12:08:20;14.73;;;11.25;;
37411;SDS011;23278;52.110;6.050;2023-07-31T12:10:51;15.30;;;13.02;;
37411;SDS011;23278;52.110;6.050;2023-07-31T12:13:32;15.38;;;11.57;;
37411;SDS011;23278;52.110;6.050;2023-07-31T12:16:04;14.93;;;11.25;;
37411;SDS011;23278;52.110;6.050;2023-07-31T12:20:59;15.27;;;11.63;;
37411;SDS011;23278;52.110;6.050;2023-07-31T12:23:28;19.38;;;12.50;;
37411;SDS011;23278;52.110;6.050;2023-07-31T12:26:05;16.85;;;13.50;;
37411;SDS011;23278;52.110;6.050;2023-07-31T12:28:42;17.35;;;12.98;;
37411;SDS011;23278;52.110;6.050;2023-07-31T12:31:11;19.17;;;12.68;;
37411;SDS011;23278;52.110;6.050;2023-07-31T12:33:38;15.52;;;12.15;;
37411;SDS011;23278;52.110;6.050;2023-07-31T12:36:09;25.20;;;14.30;;
37411;SDS011;23278;52.110;6.050;2023-07-31T12:38:39;15.70;;;12.50;;
37411;SDS011;23278;52.110;6.050;2023-07-31T12:41:06;20.35;;;13.90;;
37411;SDS011;23278;52.110;6.050;2023-07-31T12:43:33;14.20;;;11.30;;
37411;SDS011;23278;52.110;6.050;2023-07-31T12:45:59;17.23;;;11.60;;
37411;SDS011;23278;52.110;6.050;2023-07-31T12:48:25;12.45;;;10.68;;
37411;SDS011;23278;52.110;6.050;2023-07-31T12:50:51;18.15;;;11.90;;
37411;SDS011;23278;52.110;6.050;2023-07-31T12:53:17;16.00;;;13.13;;
37411;SDS011;23278;52.110;6.050;2023-07-31T12:55:43;17.65;;;10.70;;
37411;SDS011;23278;52.110;6.050;2023-07-31T12:58:09;10.57;;;9.38;;
37411;SDS011;23278;52.110;6.050;2023-07-31T13:00:35;12.60;;;10.48;;
37411;SDS011;23278;52.110;6.050;2023-07-31T13:03:01;16.15;;;11.98;;
37411;SDS011;23278;52.110;6.050;2023-07-31T13:05:28;16.50;;;11.73;;
37411;SDS011;23278;52.110;6.050;2023-07-31T13:07:54;16.52;;;11.02;;
37411;SDS011;23278;52.110;6.050;2023-07-31T13:10:21;12.32;;;10.18;;
37411;SDS011;23278;52.110;6.050;2023-07-31T13:12:48;15.35;;;10.98;;
37411;SDS011;23278;52.110;6.050;2023-07-31T13:15:14;11.07;;;9.80;;
37411;SDS011;23278;52.110;6.050;2023-07-31T13:17:40;12.27;;;10.25;;
37411;SDS011;23278;52.110;6.050;2023-07-31T13:20:07;12.65;;;9.27;;
37411;SDS011;23278;52.110;6.050;2023-07-31T13:22:34;14.75;;;9.85;;
37411;SDS011;23278;52.110;6.050;2023-07-31T13:25:00;11.90;;;9.45;;
37411;SDS011;23278;52.110;6.050;2023-07-31T13:27:26;10.10;;;8.80;;
37411;SDS011;23278;52.110;6.050;2023-07-31T13:29:52;10.65;;;9.48;;
37411;SDS011;23278;52.110;6.050;2023-07-31T13:32:18;13.35;;;10.65;;
37411;SDS011;23278;52.110;6.050;2023-07-31T13:34:45;12.98;;;9.45;;
37411;SDS011;23278;52.110;6.050;2023-07-31T13:37:12;14.13;;;10.20;;
37411;SDS011;23278;52.110;6.050;2023-07-31T13:39:39;11.20;;;10.07;;
37411;SDS011;23278;52.110;6.050;2023-07-31T13:42:05;12.98;;;9.93;;
37411;SDS011;23278;52.110;6.050;2023-07-31T13:44:36;14.40;;;10.77;;
37411;SDS011;23278;52.110;6.050;2023-07-31T13:47:02;14.23;;;10.73;;
37411;SDS011;23278;52.110;6.050;2023-07-31T13:49:29;12.82;;;10.95;;
37411;SDS011;23278;52.110;6.050;2023-07-31T13:51:55;11.52;;;10.40;;
37411;SDS011;23278;52.110;6.050;2023-07-31T13:54:23;10.85;;;8.98;;
37411;SDS011;23278;52.110;6.050;2023-07-31T13:56:49;9.93;;;8.55;;
37411;SDS011;23278;52.110;6.050;2023-07-31T13:59:15;13.55;;;10.52;;
37411;SDS011;23278;52.110;6.050;2023-07-31T14:01:42;12.07;;;9.07;;
37411;SDS011;23278;52.110;6.050;2023-07-31T14:04:08;8.20;;;7.32;;
37411;SDS011;23278;52.110;6.050;2023-07-31T14:06:35;10.98;;;8.48;;
37411;SDS011;23278;52.110;6.050;2023-07-31T14:09:01;9.63;;;8.73;;
37411;SDS011;23278;52.110;6.050;2023-07-31T14:11:28;9.10;;;8.18;;
37411;SDS011;23278;52.110;6.050;2023-07-31T14:13:56;11.43;;;8.27;;
37411;SDS011;23278;52.110;6.050;2023-07-31T14:16:22;14.27;;;8.85;;
37411;SDS011;23278;52.110;6.050;2023-07-31T14:18:48;10.63;;;7.45;;
37411;SDS011;23278;52.110;6.050;2023-07-31T14:21:15;8.75;;;7.82;;
37411;SDS011;23278;52.110;6.050;2023-07-31T14:23:41;11.45;;;7.97;;
37411;SDS011;23278;52.110;6.050;2023-07-31T14:26:07;9.95;;;8.90;;
37411;SDS011;23278;52.110;6.050;2023-07-31T14:28:33;10.98;;;8.07;;
37411;SDS011;23278;52.110;6.050;2023-07-31T14:30:59;13.30;;;9.13;;
37411;SDS011;23278;52.110;6.050;2023-07-31T14:33:25;10.93;;;8.07;;
37411;SDS011;23278;52.110;6.050;2023-07-31T14:35:51;13.25;;;9.48;;
37411;SDS011;23278;52.110;6.050;2023-07-31T14:38:17;11.32;;;8.32;;
37411;SDS011;23278;52.110;6.050;2023-07-31T14:40:43;13.07;;;8.10;;
37411;SDS011;23278;52.110;6.050;2023-07-31T14:43:09;13.65;;;8.98;;